CYTZ/YTZ METAR and TAF weather

Enter ICAO airport designator
Station Type Date Time Source
CYTZ METAR 2020/01/23 18:00 UTC NOAA

CYTZ 231800Z AUTO 00000KT 9SM CLR 01/M03 A3026 RMK SLP253


Station Type Date Time Source
CYTZ Decoded METAR 2020/01/23 18:00 UTC NOAA

Toronto Island Airport Automated Reporting Station, Canada (CYTZ) 43-38N 079-24W
Jan 23, 2020 - 01:00 PM EST / 2020.01.23 1800 UTC
Wind: Calm:0
Visibility: 9 mile(s):0
Sky conditions: clear
Temperature: 33 F (1 C)
Dew Point: 26 F (-3 C)
Relative Humidity: 74%
Pressure (altimeter): 30.26 in. Hg (1024 hPa)
ob: CYTZ 231800Z AUTO 00000KT 9SM CLR 01/M03 A3026 RMK SLP253
cycle: 18

Station Type Date Time Source
CYTZ TAF 2020/01/23 14:46 UTC NOAA

TAF CYTZ 231338Z 2314/2414 30005KT P6SM BKN160
BECMG 2316/2318 VRB03KT
FM232200 03008KT P6SM BKN120
FM240400 05010KT P6SM BKN090 OVC120
FM240900 06012KT P6SM BKN070 OVC100
RMK FCST BASED ON AUTO OBS. NXT FCST BY 232000Z

Example: see airport list